sensor_id;sensor_type;location;lat;lon;timestamp;P1;durP1;ratioP1;P2;durP2;ratioP2
46729;SDS011;32476;50.002;11.854;2022-07-23T00:00:11;9.57;;;4.80;;
46729;SDS011;32476;50.002;11.854;2022-07-23T00:02:41;5.05;;;4.20;;
46729;SDS011;32476;50.002;11.854;2022-07-23T00:05:08;8.98;;;4.40;;
46729;SDS011;32476;50.002;11.854;2022-07-23T00:07:35;16.05;;;4.63;;
46729;SDS011;32476;50.002;11.854;2022-07-23T00:10:03;5.70;;;4.10;;
46729;SDS011;32476;50.002;11.854;2022-07-23T00:12:30;12.13;;;4.93;;
46729;SDS011;32476;50.002;11.854;2022-07-23T00:14:56;5.57;;;4.05;;
46729;SDS011;32476;50.002;11.854;2022-07-23T00:17:24;6.18;;;4.70;;
46729;SDS011;32476;50.002;11.854;2022-07-23T00:19:50;11.32;;;4.88;;
46729;SDS011;32476;50.002;11.854;2022-07-23T00:22:16;6.20;;;4.40;;
46729;SDS011;32476;50.002;11.854;2022-07-23T00:24:43;7.20;;;4.15;;
46729;SDS011;32476;50.002;11.854;2022-07-23T00:27:09;8.23;;;4.50;;
46729;SDS011;32476;50.002;11.854;2022-07-23T00:29:35;14.18;;;4.95;;
46729;SDS011;32476;50.002;11.854;2022-07-23T00:32:03;6.50;;;4.22;;
46729;SDS011;32476;50.002;11.854;2022-07-23T00:34:29;5.80;;;4.60;;
46729;SDS011;32476;50.002;11.854;2022-07-23T00:36:55;6.30;;;4.15;;
46729;SDS011;32476;50.002;11.854;2022-07-23T00:39:23;6.35;;;4.60;;
46729;SDS011;32476;50.002;11.854;2022-07-23T00:41:49;8.93;;;4.90;;
46729;SDS011;32476;50.002;11.854;2022-07-23T00:44:18;10.10;;;4.68;;
46729;SDS011;32476;50.002;11.854;2022-07-23T00:46:48;7.75;;;4.13;;
46729;SDS011;32476;50.002;11.854;2022-07-23T00:49:19;8.85;;;4.65;;
46729;SDS011;32476;50.002;11.854;2022-07-23T00:51:48;4.85;;;4.35;;
46729;SDS011;32476;50.002;11.854;2022-07-23T00:54:15;5.40;;;4.85;;
46729;SDS011;32476;50.002;11.854;2022-07-23T00:56:43;8.73;;;4.38;;
46729;SDS011;32476;50.002;11.854;2022-07-23T00:59:12;23.83;;;5.22;;
46729;SDS011;32476;50.002;11.854;2022-07-23T01:01:38;8.27;;;4.80;;
46729;SDS011;32476;50.002;11.854;2022-07-23T01:04:05;5.88;;;4.50;;
46729;SDS011;32476;50.002;11.854;2022-07-23T01:06:34;6.63;;;4.75;;
46729;SDS011;32476;50.002;11.854;2022-07-23T01:09:02;5.68;;;3.78;;
46729;SDS011;32476;50.002;11.854;2022-07-23T01:11:31;4.85;;;4.45;;
46729;SDS011;32476;50.002;11.854;2022-07-23T01:14:14;8.02;;;4.38;;
46729;SDS011;32476;50.002;11.854;2022-07-23T01:16:42;8.25;;;4.50;;
46729;SDS011;32476;50.002;11.854;2022-07-23T01:19:11;5.97;;;4.57;;
46729;SDS011;32476;50.002;11.854;2022-07-23T01:21:39;6.43;;;4.95;;
46729;SDS011;32476;50.002;11.854;2022-07-23T01:24:08;7.13;;;4.53;;
46729;SDS011;32476;50.002;11.854;2022-07-23T01:26:37;5.10;;;4.60;;
46729;SDS011;32476;50.002;11.854;2022-07-23T01:29:05;8.20;;;4.70;;
46729;SDS011;32476;50.002;11.854;2022-07-23T01:31:31;5.28;;;4.70;;
46729;SDS011;32476;50.002;11.854;2022-07-23T01:33:59;7.38;;;4.88;;
46729;SDS011;32476;50.002;11.854;2022-07-23T01:36:25;5.82;;;5.22;;
46729;SDS011;32476;50.002;11.854;2022-07-23T01:38:51;4.80;;;4.30;;
46729;SDS011;32476;50.002;11.854;2022-07-23T01:41:19;5.40;;;4.90;;
46729;SDS011;32476;50.002;11.854;2022-07-23T01:43:45;7.32;;;4.07;;
46729;SDS011;32476;50.002;11.854;2022-07-23T01:46:11;11.10;;;5.10;;
46729;SDS011;32476;50.002;11.854;2022-07-23T01:48:39;7.93;;;4.55;;
46729;SDS011;32476;50.002;11.854;2022-07-23T01:51:05;7.80;;;4.80;;
46729;SDS011;32476;50.002;11.854;2022-07-23T01:53:31;9.20;;;4.82;;
46729;SDS011;32476;50.002;11.854;2022-07-23T01:55:58;9.07;;;4.65;;
46729;SDS011;32476;50.002;11.854;2022-07-23T01:58:26;8.23;;;5.43;;
46729;SDS011;32476;50.002;11.854;2022-07-23T02:00:53;9.27;;;5.00;;
46729;SDS011;32476;50.002;11.854;2022-07-23T02:03:21;7.30;;;4.95;;
46729;SDS011;32476;50.002;11.854;2022-07-23T02:05:48;6.30;;;4.97;;
46729;SDS011;32476;50.002;11.854;2022-07-23T02:08:14;5.88;;;4.72;;
46729;SDS011;32476;50.002;11.854;2022-07-23T02:10:42;7.10;;;4.63;;
46729;SDS011;32476;50.002;11.854;2022-07-23T02:13:07;8.60;;;4.78;;
46729;SDS011;32476;50.002;11.854;2022-07-23T02:15:34;6.65;;;4.72;;
46729;SDS011;32476;50.002;11.854;2022-07-23T02:18:01;6.18;;;4.90;;
46729;SDS011;32476;50.002;11.854;2022-07-23T02:20:27;7.05;;;4.75;;
46729;SDS011;32476;50.002;11.854;2022-07-23T02:22:53;6.20;;;4.60;;
46729;SDS011;32476;50.002;11.854;2022-07-23T02:25:21;6.53;;;5.10;;
46729;SDS011;32476;50.002;11.854;2022-07-23T02:27:47;9.63;;;4.63;;
46729;SDS011;32476;50.002;11.854;2022-07-23T02:30:13;26.27;;;5.07;;
46729;SDS011;32476;50.002;11.854;2022-07-23T02:32:41;7.45;;;4.88;;
46729;SDS011;32476;50.002;11.854;2022-07-23T02:35:07;6.85;;;5.00;;
46729;SDS011;32476;50.002;11.854;2022-07-23T02:37:33;8.52;;;4.95;;
46729;SDS011;32476;50.002;11.854;2022-07-23T02:40:00;7.78;;;5.03;;
46729;SDS011;32476;50.002;11.854;2022-07-23T02:42:26;11.20;;;5.22;;
46729;SDS011;32476;50.002;11.854;2022-07-23T02:44:52;5.57;;;5.00;;
46729;SDS011;32476;50.002;11.854;2022-07-23T02:47:20;7.13;;;4.75;;
46729;SDS011;32476;50.002;11.854;2022-07-23T02:49:46;6.82;;;4.70;;
46729;SDS011;32476;50.002;11.854;2022-07-23T02:52:11;6.22;;;4.40;;
46729;SDS011;32476;50.002;11.854;2022-07-23T02:54:39;7.63;;;5.03;;
46729;SDS011;32476;50.002;11.854;2022-07-23T02:57:05;8.73;;;5.20;;
46729;SDS011;32476;50.002;11.854;2022-07-23T02:59:31;6.55;;;4.80;;
46729;SDS011;32476;50.002;11.854;2022-07-23T03:01:58;6.80;;;5.10;;
46729;SDS011;32476;50.002;11.854;2022-07-23T03:04:24;12.05;;;4.85;;
46729;SDS011;32476;50.002;11.854;2022-07-23T03:06:50;6.13;;;4.50;;
46729;SDS011;32476;50.002;11.854;2022-07-23T03:09:18;12.52;;;5.25;;
46729;SDS011;32476;50.002;11.854;2022-07-23T03:11:44;35.33;;;6.20;;
46729;SDS011;32476;50.002;11.854;2022-07-23T03:14:10;8.20;;;5.93;;
46729;SDS011;32476;50.002;11.854;2022-07-23T03:16:40;5.65;;;5.15;;
46729;SDS011;32476;50.002;11.854;2022-07-23T03:19:05;11.10;;;5.82;;
46729;SDS011;32476;50.002;11.854;2022-07-23T03:21:31;7.65;;;4.97;;
46729;SDS011;32476;50.002;11.854;2022-07-23T03:23:59;13.45;;;5.93;;
46729;SDS011;32476;50.002;11.854;2022-07-23T03:26:26;7.40;;;5.35;;
46729;SDS011;32476;50.002;11.854;2022-07-23T03:28:52;9.75;;;5.60;;
46729;SDS011;32476;50.002;11.854;2022-07-23T03:31:19;9.38;;;5.80;;
46729;SDS011;32476;50.002;11.854;2022-07-23T03:33:45;8.75;;;5.82;;
46729;SDS011;32476;50.002;11.854;2022-07-23T03:36:11;6.95;;;5.43;;
46729;SDS011;32476;50.002;11.854;2022-07-23T03:38:38;7.07;;;5.25;;
46729;SDS011;32476;50.002;11.854;2022-07-23T03:41:04;8.55;;;5.13;;
46729;SDS011;32476;50.002;11.854;2022-07-23T03:43:30;6.60;;;5.00;;
46729;SDS011;32476;50.002;11.854;2022-07-23T03:45:58;6.72;;;5.10;;
46729;SDS011;32476;50.002;11.854;2022-07-23T03:48:23;6.82;;;5.40;;
46729;SDS011;32476;50.002;11.854;2022-07-23T03:50:49;7.50;;;5.32;;
46729;SDS011;32476;50.002;11.854;2022-07-23T03:53:17;8.38;;;5.15;;
46729;SDS011;32476;50.002;11.854;2022-07-23T03:55:43;7.95;;;5.70;;
46729;SDS011;32476;50.002;11.854;2022-07-23T03:58:09;8.88;;;5.25;;
46729;SDS011;32476;50.002;11.854;2022-07-23T04:00:36;6.07;;;5.47;;
46729;SDS011;32476;50.002;11.854;2022-07-23T04:03:02;6.00;;;5.32;;
46729;SDS011;32476;50.002;11.854;2022-07-23T04:05:28;6.80;;;5.43;;
46729;SDS011;32476;50.002;11.854;2022-07-23T04:07:56;6.00;;;5.38;;
46729;SDS011;32476;50.002;11.854;2022-07-23T04:10:22;7.10;;;6.00;;
46729;SDS011;32476;50.002;11.854;2022-07-23T04:12:48;7.40;;;6.20;;
46729;SDS011;32476;50.002;11.854;2022-07-23T04:15:16;9.15;;;5.63;;
46729;SDS011;32476;50.002;11.854;2022-07-23T04:17:42;7.00;;;5.72;;
46729;SDS011;32476;50.002;11.854;2022-07-23T04:20:09;9.77;;;5.18;;
46729;SDS011;32476;50.002;11.854;2022-07-23T04:22:38;9.50;;;5.35;;
46729;SDS011;32476;50.002;11.854;2022-07-23T04:25:04;7.43;;;5.63;;
46729;SDS011;32476;50.002;11.854;2022-07-23T04:27:30;8.13;;;5.88;;
46729;SDS011;32476;50.002;11.854;2022-07-23T04:30:00;9.52;;;6.40;;
46729;SDS011;32476;50.002;11.854;2022-07-23T04:32:26;11.35;;;6.20;;
46729;SDS011;32476;50.002;11.854;2022-07-23T04:34:52;11.98;;;6.10;;
46729;SDS011;32476;50.002;11.854;2022-07-23T04:37:19;6.43;;;5.80;;
46729;SDS011;32476;50.002;11.854;2022-07-23T04:39:45;8.73;;;6.55;;
46729;SDS011;32476;50.002;11.854;2022-07-23T04:42:11;10.10;;;6.20;;
46729;SDS011;32476;50.002;11.854;2022-07-23T04:44:38;9.85;;;5.78;;
46729;SDS011;32476;50.002;11.854;2022-07-23T04:47:04;7.63;;;6.25;;
46729;SDS011;32476;50.002;11.854;2022-07-23T04:49:30;7.05;;;5.93;;
46729;SDS011;32476;50.002;11.854;2022-07-23T04:51:57;12.43;;;5.72;;
46729;SDS011;32476;50.002;11.854;2022-07-23T04:54:23;6.15;;;5.50;;
46729;SDS011;32476;50.002;11.854;2022-07-23T04:56:49;8.55;;;6.13;;
46729;SDS011;32476;50.002;11.854;2022-07-23T04:59:16;9.15;;;6.40;;
46729;SDS011;32476;50.002;11.854;2022-07-23T05:01:43;8.50;;;5.85;;
46729;SDS011;32476;50.002;11.854;2022-07-23T05:04:08;8.63;;;6.63;;
46729;SDS011;32476;50.002;11.854;2022-07-23T05:06:36;7.85;;;6.82;;
46729;SDS011;32476;50.002;11.854;2022-07-23T05:09:02;10.25;;;6.32;;
46729;SDS011;32476;50.002;11.854;2022-07-23T05:11:28;7.78;;;6.30;;
46729;SDS011;32476;50.002;11.854;2022-07-23T05:13:55;13.27;;;6.85;;
46729;SDS011;32476;50.002;11.854;2022-07-23T05:16:21;9.52;;;6.80;;
46729;SDS011;32476;50.002;11.854;2022-07-23T05:18:47;13.65;;;6.55;;
46729;SDS011;32476;50.002;11.854;2022-07-23T05:21:15;10.00;;;6.68;;
46729;SDS011;32476;50.002;11.854;2022-07-23T05:23:41;11.77;;;7.03;;
46729;SDS011;32476;50.002;11.854;2022-07-23T05:26:06;8.90;;;6.88;;
46729;SDS011;32476;50.002;11.854;2022-07-23T05:28:34;9.68;;;6.55;;
46729;SDS011;32476;50.002;11.854;2022-07-23T05:31:00;10.07;;;6.60;;
46729;SDS011;32476;50.002;11.854;2022-07-23T05:33:26;7.25;;;6.22;;
46729;SDS011;32476;50.002;11.854;2022-07-23T05:35:53;9.90;;;6.22;;
46729;SDS011;32476;50.002;11.854;2022-07-23T05:38:25;14.07;;;6.20;;
46729;SDS011;32476;50.002;11.854;2022-07-23T05:40:51;9.30;;;5.80;;
46729;SDS011;32476;50.002;11.854;2022-07-23T05:43:19;9.18;;;6.03;;
46729;SDS011;32476;50.002;11.854;2022-07-23T05:45:45;10.30;;;5.85;;
46729;SDS011;32476;50.002;11.854;2022-07-23T05:48:11;12.50;;;5.70;;
46729;SDS011;32476;50.002;11.854;2022-07-23T05:50:38;7.72;;;5.68;;
46729;SDS011;32476;50.002;11.854;2022-07-23T05:53:04;11.73;;;6.20;;
46729;SDS011;32476;50.002;11.854;2022-07-23T05:55:30;9.05;;;5.75;;
46729;SDS011;32476;50.002;11.854;2022-07-23T05:57:58;8.75;;;5.65;;
46729;SDS011;32476;50.002;11.854;2022-07-23T06:00:25;8.43;;;6.18;;
46729;SDS011;32476;50.002;11.854;2022-07-23T06:02:52;7.72;;;5.63;;
46729;SDS011;32476;50.002;11.854;2022-07-23T06:05:20;6.28;;;5.55;;
46729;SDS011;32476;50.002;11.854;2022-07-23T06:07:46;9.70;;;5.75;;
46729;SDS011;32476;50.002;11.854;2022-07-23T06:10:12;8.30;;;6.57;;
46729;SDS011;32476;50.002;11.854;2022-07-23T06:12:39;8.38;;;6.30;;
46729;SDS011;32476;50.002;11.854;2022-07-23T06:15:06;8.85;;;5.90;;
46729;SDS011;32476;50.002;11.854;2022-07-23T06:17:33;10.07;;;6.18;;
46729;SDS011;32476;50.002;11.854;2022-07-23T06:20:01;11.27;;;5.95;;
46729;SDS011;32476;50.002;11.854;2022-07-23T06:22:27;9.88;;;5.57;;
46729;SDS011;32476;50.002;11.854;2022-07-23T06:24:53;7.05;;;5.57;;
46729;SDS011;32476;50.002;11.854;2022-07-23T06:27:21;9.45;;;6.38;;
46729;SDS011;32476;50.002;11.854;2022-07-23T06:29:47;6.95;;;5.72;;
46729;SDS011;32476;50.002;11.854;2022-07-23T06:32:13;10.48;;;5.78;;
46729;SDS011;32476;50.002;11.854;2022-07-23T06:34:40;7.35;;;5.63;;
46729;SDS011;32476;50.002;11.854;2022-07-23T06:37:06;6.20;;;5.60;;
46729;SDS011;32476;50.002;11.854;2022-07-23T06:39:33;10.48;;;5.75;;
46729;SDS011;32476;50.002;11.854;2022-07-23T06:42:00;7.53;;;5.80;;
46729;SDS011;32476;50.002;11.854;2022-07-23T06:44:27;7.85;;;5.75;;
46729;SDS011;32476;50.002;11.854;2022-07-23T06:46:53;9.45;;;5.85;;
46729;SDS011;32476;50.002;11.854;2022-07-23T06:49:21;6.45;;;5.72;;
46729;SDS011;32476;50.002;11.854;2022-07-23T06:51:47;8.00;;;5.80;;
46729;SDS011;32476;50.002;11.854;2022-07-23T06:54:13;7.43;;;5.82;;
46729;SDS011;32476;50.002;11.854;2022-07-23T06:56:41;9.25;;;6.30;;
46729;SDS011;32476;50.002;11.854;2022-07-23T06:59:08;9.43;;;5.93;;
46729;SDS011;32476;50.002;11.854;2022-07-23T07:01:34;6.43;;;5.55;;
46729;SDS011;32476;50.002;11.854;2022-07-23T07:04:01;11.73;;;6.25;;
46729;SDS011;32476;50.002;11.854;2022-07-23T07:06:27;12.82;;;6.25;;
46729;SDS011;32476;50.002;11.854;2022-07-23T07:08:53;9.40;;;6.05;;
46729;SDS011;32476;50.002;11.854;2022-07-23T07:11:22;13.27;;;6.65;;
46729;SDS011;32476;50.002;11.854;2022-07-23T07:13:50;11.25;;;6.60;;
46729;SDS011;32476;50.002;11.854;2022-07-23T07:16:16;11.52;;;6.50;;
46729;SDS011;32476;50.002;11.854;2022-07-23T07:18:44;9.40;;;6.72;;
46729;SDS011;32476;50.002;11.854;2022-07-23T07:21:10;9.95;;;6.85;;
46729;SDS011;32476;50.002;11.854;2022-07-23T07:23:36;8.13;;;6.45;;
46729;SDS011;32476;50.002;11.854;2022-07-23T07:26:03;8.80;;;6.60;;
46729;SDS011;32476;50.002;11.854;2022-07-23T07:28:29;9.65;;;6.68;;
46729;SDS011;32476;50.002;11.854;2022-07-23T07:30:55;7.60;;;6.10;;
46729;SDS011;32476;50.002;11.854;2022-07-23T07:33:22;7.60;;;6.00;;
46729;SDS011;32476;50.002;11.854;2022-07-23T07:35:48;8.93;;;6.35;;
46729;SDS011;32476;50.002;11.854;2022-07-23T07:38:15;8.50;;;6.50;;
46729;SDS011;32476;50.002;11.854;2022-07-23T07:40:42;11.30;;;6.68;;
46729;SDS011;32476;50.002;11.854;2022-07-23T07:43:08;8.68;;;6.60;;
46729;SDS011;32476;50.002;11.854;2022-07-23T07:45:34;8.40;;;6.30;;
46729;SDS011;32476;50.002;11.854;2022-07-23T07:48:01;10.90;;;7.22;;
46729;SDS011;32476;50.002;11.854;2022-07-23T07:50:28;10.27;;;6.93;;
46729;SDS011;32476;50.002;11.854;2022-07-23T07:52:54;7.53;;;6.38;;
46729;SDS011;32476;50.002;11.854;2022-07-23T07:55:21;11.75;;;6.65;;
46729;SDS011;32476;50.002;11.854;2022-07-23T07:57:47;10.15;;;6.32;;
46729;SDS011;32476;50.002;11.854;2022-07-23T08:00:14;8.55;;;6.07;;
46729;SDS011;32476;50.002;11.854;2022-07-23T08:02:45;11.55;;;7.05;;
46729;SDS011;32476;50.002;11.854;2022-07-23T08:05:12;13.27;;;6.50;;
46729;SDS011;32476;50.002;11.854;2022-07-23T08:07:41;8.05;;;6.18;;
46729;SDS011;32476;50.002;11.854;2022-07-23T08:10:09;7.07;;;6.18;;
46729;SDS011;32476;50.002;11.854;2022-07-23T08:12:42;7.63;;;6.68;;
46729;SDS011;32476;50.002;11.854;2022-07-23T08:15:12;12.18;;;6.43;;
46729;SDS011;32476;50.002;11.854;2022-07-23T08:17:41;7.18;;;6.13;;
46729;SDS011;32476;50.002;11.854;2022-07-23T08:20:08;7.15;;;6.05;;
46729;SDS011;32476;50.002;11.854;2022-07-23T08:22:41;9.38;;;6.13;;
46729;SDS011;32476;50.002;11.854;2022-07-23T08:25:15;8.00;;;6.22;;
46729;SDS011;32476;50.002;11.854;2022-07-23T08:28:05;8.23;;;5.90;;
46729;SDS011;32476;50.002;11.854;2022-07-23T08:30:35;6.95;;;5.93;;
46729;SDS011;32476;50.002;11.854;2022-07-23T08:33:08;7.70;;;6.30;;
46729;SDS011;32476;50.002;11.854;2022-07-23T08:35:39;6.38;;;5.28;;
46729;SDS011;32476;50.002;11.854;2022-07-23T08:38:10;7.82;;;5.55;;
46729;SDS011;32476;50.002;11.854;2022-07-23T08:40:39;5.78;;;5.25;;
46729;SDS011;32476;50.002;11.854;2022-07-23T08:43:23;7.22;;;5.55;;
46729;SDS011;32476;50.002;11.854;2022-07-23T08:45:56;7.63;;;6.03;;
46729;SDS011;32476;50.002;11.854;2022-07-23T08:48:35;9.38;;;6.40;;
46729;SDS011;32476;50.002;11.854;2022-07-23T08:51:02;6.93;;;5.90;;
46729;SDS011;32476;50.002;11.854;2022-07-23T08:53:32;10.93;;;5.45;;
46729;SDS011;32476;50.002;11.854;2022-07-23T08:56:01;8.55;;;5.75;;
46729;SDS011;32476;50.002;11.854;2022-07-23T08:58:29;7.28;;;5.28;;
46729;SDS011;32476;50.002;11.854;2022-07-23T09:00:58;5.85;;;5.25;;
46729;SDS011;32476;50.002;11.854;2022-07-23T09:03:28;7.13;;;5.95;;
46729;SDS011;32476;50.002;11.854;2022-07-23T09:05:59;11.15;;;5.45;;
46729;SDS011;32476;50.002;11.854;2022-07-23T09:11:06;8.35;;;6.00;;
46729;SDS011;32476;50.002;11.854;2022-07-23T09:13:38;6.90;;;5.95;;
46729;SDS011;32476;50.002;11.854;2022-07-23T09:16:29;7.40;;;6.32;;
46729;SDS011;32476;50.002;11.854;2022-07-23T09:18:57;8.70;;;6.10;;
46729;SDS011;32476;50.002;11.854;2022-07-23T09:29:19;8.95;;;5.90;;
46729;SDS011;32476;50.002;11.854;2022-07-23T09:32:02;6.18;;;5.57;;
46729;SDS011;32476;50.002;11.854;2022-07-23T09:34:33;9.60;;;5.95;;
46729;SDS011;32476;50.002;11.854;2022-07-23T09:37:12;7.53;;;5.88;;
46729;SDS011;32476;50.002;11.854;2022-07-23T09:39:40;7.57;;;5.25;;
46729;SDS011;32476;50.002;11.854;2022-07-23T09:42:17;8.75;;;5.47;;
46729;SDS011;32476;50.002;11.854;2022-07-23T09:44:47;7.85;;;5.75;;
46729;SDS011;32476;50.002;11.854;2022-07-23T09:47:17;8.57;;;5.43;;
46729;SDS011;32476;50.002;11.854;2022-07-23T09:50:03;8.50;;;6.30;;
46729;SDS011;32476;50.002;11.854;2022-07-23T09:52:48;6.47;;;5.75;;
46729;SDS011;32476;50.002;11.854;2022-07-23T09:55:16;7.97;;;5.63;;
46729;SDS011;32476;50.002;11.854;2022-07-23T09:57:46;9.50;;;5.75;;
46729;SDS011;32476;50.002;11.854;2022-07-23T10:00:20;8.60;;;6.05;;
46729;SDS011;32476;50.002;11.854;2022-07-23T10:02:49;7.00;;;5.43;;
46729;SDS011;32476;50.002;11.854;2022-07-23T10:05:15;14.63;;;5.55;;
46729;SDS011;32476;50.002;11.854;2022-07-23T10:07:42;8.48;;;5.45;;
46729;SDS011;32476;50.002;11.854;2022-07-23T10:10:11;8.20;;;5.60;;
46729;SDS011;32476;50.002;11.854;2022-07-23T10:12:39;7.45;;;5.45;;
46729;SDS011;32476;50.002;11.854;2022-07-23T10:15:17;8.27;;;5.60;;
46729;SDS011;32476;50.002;11.854;2022-07-23T10:17:44;7.57;;;6.53;;
46729;SDS011;32476;50.002;11.854;2022-07-23T10:20:10;9.40;;;6.00;;
46729;SDS011;32476;50.002;11.854;2022-07-23T10:22:42;6.95;;;5.60;;
46729;SDS011;32476;50.002;11.854;2022-07-23T10:25:32;7.63;;;5.55;;
46729;SDS011;32476;50.002;11.854;2022-07-23T10:28:16;7.43;;;5.78;;
46729;SDS011;32476;50.002;11.854;2022-07-23T10:35:07;7.57;;;5.25;;
46729;SDS011;32476;50.002;11.854;2022-07-23T10:37:22;7.53;;;5.68;;
46729;SDS011;32476;50.002;11.854;2022-07-23T10:42:46;8.20;;;5.05;;
46729;SDS011;32476;50.002;11.854;2022-07-23T10:47:52;7.03;;;5.60;;
46729;SDS011;32476;50.002;11.854;2022-07-23T10:58:06;6.65;;;5.57;;
46729;SDS011;32476;50.002;11.854;2022-07-23T11:00:33;8.40;;;5.13;;
46729;SDS011;32476;50.002;11.854;2022-07-23T11:03:03;6.55;;;5.90;;
46729;SDS011;32476;50.002;11.854;2022-07-23T11:06:10;7.10;;;5.72;;
46729;SDS011;32476;50.002;11.854;2022-07-23T11:08:37;7.80;;;6.10;;
46729;SDS011;32476;50.002;11.854;2022-07-23T11:13:36;8.05;;;5.13;;
46729;SDS011;32476;50.002;11.854;2022-07-23T11:16:16;9.18;;;5.90;;
46729;SDS011;32476;50.002;11.854;2022-07-23T11:29:40;6.18;;;5.57;;
46729;SDS011;32476;50.002;11.854;2022-07-23T11:32:24;7.03;;;5.50;;
46729;SDS011;32476;50.002;11.854;2022-07-23T11:34:54;6.50;;;5.45;;
46729;SDS011;32476;50.002;11.854;2022-07-23T11:37:28;6.88;;;5.30;;
46729;SDS011;32476;50.002;11.854;2022-07-23T11:39:59;9.23;;;6.18;;
46729;SDS011;32476;50.002;11.854;2022-07-23T11:42:27;8.63;;;5.45;;
46729;SDS011;32476;50.002;11.854;2022-07-23T11:44:53;7.90;;;6.38;;
46729;SDS011;32476;50.002;11.854;2022-07-23T11:47:23;8.50;;;5.90;;
46729;SDS011;32476;50.002;11.854;2022-07-23T11:49:53;6.40;;;5.30;;
46729;SDS011;32476;50.002;11.854;2022-07-23T11:52:24;6.05;;;5.22;;
46729;SDS011;32476;50.002;11.854;2022-07-23T11:54:54;9.05;;;5.95;;
46729;SDS011;32476;50.002;11.854;2022-07-23T11:57:25;6.68;;;5.95;;
46729;SDS011;32476;50.002;11.854;2022-07-23T12:00:09;10.20;;;5.97;;
46729;SDS011;32476;50.002;11.854;2022-07-23T12:02:41;7.88;;;6.10;;
46729;SDS011;32476;50.002;11.854;2022-07-23T12:05:15;9.88;;;6.00;;
46729;SDS011;32476;50.002;11.854;2022-07-23T12:07:48;11.50;;;6.10;;
46729;SDS011;32476;50.002;11.854;2022-07-23T12:10:25;9.85;;;6.07;;
46729;SDS011;32476;50.002;11.854;2022-07-23T12:12:55;10.43;;;6.45;;
46729;SDS011;32476;50.002;11.854;2022-07-23T12:15:45;7.38;;;6.65;;
46729;SDS011;32476;50.002;11.854;2022-07-23T12:18:14;8.88;;;5.75;;
46729;SDS011;32476;50.002;11.854;2022-07-23T12:20:47;10.20;;;6.32;;
46729;SDS011;32476;50.002;11.854;2022-07-23T12:23:17;10.32;;;6.43;;
46729;SDS011;32476;50.002;11.854;2022-07-23T12:25:47;7.00;;;6.30;;
46729;SDS011;32476;50.002;11.854;2022-07-23T12:28:15;7.82;;;5.85;;
46729;SDS011;32476;50.002;11.854;2022-07-23T12:30:59;11.30;;;6.68;;
46729;SDS011;32476;50.002;11.854;2022-07-23T12:33:31;6.35;;;5.72;;
46729;SDS011;32476;50.002;11.854;2022-07-23T12:36:05;8.55;;;6.35;;
46729;SDS011;32476;50.002;11.854;2022-07-23T12:38:38;9.25;;;5.88;;
46729;SDS011;32476;50.002;11.854;2022-07-23T12:41:15;9.57;;;6.05;;
46729;SDS011;32476;50.002;11.854;2022-07-23T12:43:42;8.65;;;6.20;;
46729;SDS011;32476;50.002;11.854;2022-07-23T12:46:12;6.97;;;6.28;;
46729;SDS011;32476;50.002;11.854;2022-07-23T12:51:15;6.97;;;6.22;;
46729;SDS011;32476;50.002;11.854;2022-07-23T12:53:49;8.63;;;6.32;;
46729;SDS011;32476;50.002;11.854;2022-07-23T12:56:31;7.43;;;6.28;;
46729;SDS011;32476;50.002;11.854;2022-07-23T12:59:08;9.10;;;7.03;;
46729;SDS011;32476;50.002;11.854;2022-07-23T13:04:10;9.52;;;6.35;;
46729;SDS011;32476;50.002;11.854;2022-07-23T13:06:48;12.68;;;6.25;;
46729;SDS011;32476;50.002;11.854;2022-07-23T13:09:22;7.72;;;6.20;;
46729;SDS011;32476;50.002;11.854;2022-07-23T13:11:59;8.15;;;6.18;;
46729;SDS011;32476;50.002;11.854;2022-07-23T13:14:28;6.63;;;5.90;;
46729;SDS011;32476;50.002;11.854;2022-07-23T13:16:55;7.75;;;6.32;;
46729;SDS011;32476;50.002;11.854;2022-07-23T13:19:21;8.43;;;6.40;;
46729;SDS011;32476;50.002;11.854;2022-07-23T13:21:49;8.65;;;6.55;;
46729;SDS011;32476;50.002;11.854;2022-07-23T13:24:15;8.85;;;6.18;;
46729;SDS011;32476;50.002;11.854;2022-07-23T13:26:41;8.07;;;6.70;;
46729;SDS011;32476;50.002;11.854;2022-07-23T13:29:09;10.85;;;6.95;;
46729;SDS011;32476;50.002;11.854;2022-07-23T13:31:36;7.32;;;6.10;;
46729;SDS011;32476;50.002;11.854;2022-07-23T13:34:02;7.53;;;6.07;;
46729;SDS011;32476;50.002;11.854;2022-07-23T13:36:30;9.00;;;5.68;;
46729;SDS011;32476;50.002;11.854;2022-07-23T13:38:56;11.00;;;5.75;;
46729;SDS011;32476;50.002;11.854;2022-07-23T13:41:22;9.75;;;5.13;;
46729;SDS011;32476;50.002;11.854;2022-07-23T13:43:50;9.48;;;5.63;;
46729;SDS011;32476;50.002;11.854;2022-07-23T13:46:16;10.38;;;5.32;;
46729;SDS011;32476;50.002;11.854;2022-07-23T13:48:42;7.90;;;5.75;;
46729;SDS011;32476;50.002;11.854;2022-07-23T13:51:09;8.73;;;6.03;;
46729;SDS011;32476;50.002;11.854;2022-07-23T13:53:35;10.27;;;5.43;;
46729;SDS011;32476;50.002;11.854;2022-07-23T13:56:01;7.93;;;5.38;;
46729;SDS011;32476;50.002;11.854;2022-07-23T13:58:29;13.27;;;5.40;;
46729;SDS011;32476;50.002;11.854;2022-07-23T14:00:55;7.20;;;5.10;;
46729;SDS011;32476;50.002;11.854;2022-07-23T14:03:21;6.00;;;5.40;;
46729;SDS011;32476;50.002;11.854;2022-07-23T14:05:50;11.00;;;5.30;;
46729;SDS011;32476;50.002;11.854;2022-07-23T14:08:17;10.32;;;5.45;;
46729;SDS011;32476;50.002;11.854;2022-07-23T14:10:44;11.48;;;5.35;;
46729;SDS011;32476;50.002;11.854;2022-07-23T14:13:11;6.35;;;5.32;;
46729;SDS011;32476;50.002;11.854;2022-07-23T14:15:37;8.30;;;5.25;;
46729;SDS011;32476;50.002;11.854;2022-07-23T14:18:05;6.65;;;5.78;;
46729;SDS011;32476;50.002;11.854;2022-07-23T14:20:34;9.13;;;5.38;;
46729;SDS011;32476;50.002;11.854;2022-07-23T14:23:00;6.63;;;5.20;;
46729;SDS011;32476;50.002;11.854;2022-07-23T14:25:26;6.93;;;5.18;;
46729;SDS011;32476;50.002;11.854;2022-07-23T14:27:54;7.10;;;4.70;;
46729;SDS011;32476;50.002;11.854;2022-07-23T14:30:20;15.00;;;5.25;;
46729;SDS011;32476;50.002;11.854;2022-07-23T14:32:48;6.10;;;5.53;;
46729;SDS011;32476;50.002;11.854;2022-07-23T14:35:15;8.52;;;5.88;;
46729;SDS011;32476;50.002;11.854;2022-07-23T14:37:41;8.90;;;5.82;;
46729;SDS011;32476;50.002;11.854;2022-07-23T14:40:07;7.25;;;5.60;;
46729;SDS011;32476;50.002;11.854;2022-07-23T14:42:35;8.98;;;6.38;;
46729;SDS011;32476;50.002;11.854;2022-07-23T14:45:02;12.85;;;6.68;;
46729;SDS011;32476;50.002;11.854;2022-07-23T14:47:30;8.50;;;6.28;;
46729;SDS011;32476;50.002;11.854;2022-07-23T14:49:58;7.97;;;6.07;;
46729;SDS011;32476;50.002;11.854;2022-07-23T14:52:24;9.10;;;7.25;;
46729;SDS011;32476;50.002;11.854;2022-07-23T14:54:50;8.15;;;6.60;;
46729;SDS011;32476;50.002;11.854;2022-07-23T14:57:17;8.10;;;7.18;;
46729;SDS011;32476;50.002;11.854;2022-07-23T14:59:43;10.10;;;6.53;;
46729;SDS011;32476;50.002;11.854;2022-07-23T15:02:09;9.70;;;6.13;;
46729;SDS011;32476;50.002;11.854;2022-07-23T15:04:36;8.68;;;6.47;;
46729;SDS011;32476;50.002;11.854;2022-07-23T15:07:02;9.35;;;6.32;;
46729;SDS011;32476;50.002;11.854;2022-07-23T15:09:28;11.20;;;6.93;;
46729;SDS011;32476;50.002;11.854;2022-07-23T15:11:56;7.50;;;6.68;;
46729;SDS011;32476;50.002;11.854;2022-07-23T15:14:22;13.15;;;6.10;;
46729;SDS011;32476;50.002;11.854;2022-07-23T15:16:48;11.10;;;6.20;;
46729;SDS011;32476;50.002;11.854;2022-07-23T15:19:16;6.78;;;6.18;;
46729;SDS011;32476;50.002;11.854;2022-07-23T15:21:41;7.60;;;5.68;;
46729;SDS011;32476;50.002;11.854;2022-07-23T15:24:07;7.53;;;6.47;;